Hauptseite
METAR-TAF:

METAR-TAF

Flughäfen :

Dübendorf, Schweiz

Militärflugplatz Dübendorf

Breite: 47-23-55N, Länge: 8-38-53E, Höhe: 448 m

Beobachtung

Neuester Wetterbericht von vor 34 Minuten, um 08:50 UTC
Wind 15 kt aus West, Böen bis zu 29 kt, variierte zwischen Südwest und Nordwest
Temperatur 9°C
Luftfeuchtigkeit 66%
Luftdruck 1003 hPa
Sichtweite 10 km oder mehr
Leicht bewölkt in der Höhe von 2900 ft
Durchbrochene Bewölkung in der Höhe von 3300 ft
Durchbrochene Bewölkung in der Höhe von 9900 ft
Regenschauer

METAR: LSMD 160850Z 27015G29KT 220V320 9999 -SHRA FEW029 BKN033 BKN099 09/03 Q1003 RMK BLU

Zeit: 10:24 (09:24 UTC)


TAF: fehlend

Wetterbeobachtungen und Prognosen von mehr als 4000 Flughäfen (METAR und TAF Bericht).

Die verfügbaren Stationen werden durch gelbe und rote Markierungen auf der Karte dargestellt.

Führen Sie die Maus auf sie, um den Namen der Station zu sehen.

Darauf klicken, um die Beobachtung von Wetterbeobachtungen und Prognosen zu sehen.

Um die Karte zu ändern : klicken Sie auf den grünen Tasten mit einem schwarzen Kreuz Zum Vergrößern, auf den grünen Button mit einem Gedankenstrich zu verkleinern, oder auf die grünen Pfeile für benachbarte Karten.


METAR-TAF: